Port Stanley — V7EE9 — position and weather

sailwx.info

Track history (hours):
 
Tides and Currents Weather Stations Pressure Air Temp Water Temp Dewpoint Dewpoint Depression Visibility Wind Speed Wind Dir Waves Ship Positions

Port Stanley

Last reported at 2017-Aug-22 07:00 UTC. Time now 2017-Aug-22 07:12 UTC.
Position N 24°40' E 119°05'.

Length 183 m; draft 12 m.

MMSI: 538090299.

Date/timePositionNaut miles runAvg speedWind from/ knotsBaromVisibWave heightAir tempDewpointWater temp
2017-Aug-22 07:00N 24°40' E 119°05'5 9.4
2017-Aug-22 06:30N 24°38' E 119°01'6 9.0
2017-Aug-22 05:50N 24°34' E 118°56'3 8.8
2017-Aug-22 05:30N 24°32' E 118°53'14 8.3
2017-Aug-22 03:51N 24°24' E 118°41'3 8.3
2017-Aug-22 03:30N 24°23' E 118°38'7 8.3
2017-Aug-22 02:41N 24°18' E 118°32'2 8.9
2017-Aug-22 02:29N 24°17' E 118°31'5 9.1
2017-Aug-22 01:54N 24°14' E 118°27'8 9.4
2017-Aug-22 01:05N 24°07' E 118°22'110.0
2017-Aug-22 00:59N 24°07' E 118°21'510.1
2017-Aug-22 00:30N 24°02' E 118°19'610.9
2017-Aug-21 23:56N 23°58' E 118°15'  
2017-Aug-15 21:57N 01°15' E 104°09'511.1
2017-Aug-15 21:28N 01°14' E 104°03'511.2
2017-Aug-15 21:00N 01°14' E 103°58'611.3
2017-Aug-15 20:31N 01°12' E 103°53'510.7
2017-Aug-15 20:01N 01°09' E 103°48'510.6
2017-Aug-15 19:30N 01°06' E 103°44'510.5
2017-Aug-15 19:01N 01°03' E 103°40'5 9.5
2017-Aug-15 18:30N 01°04' E 103°35'510.1
2017-Aug-15 17:58N 01°07' E 103°31'510.1
2017-Aug-15 17:31N 01°09' E 103°27'710.1
2017-Aug-15 16:50N 01°14' E 103°21'  
2017-Aug-12 15:39N 01°16' E 103°24'211.6
2017-Aug-12 15:30N 01°14' E 103°25'712.4
2017-Aug-12 14:58N 01°13' E 103°31'612.8
2017-Aug-12 14:30N 01°12' E 103°37'612.6
2017-Aug-12 14:00N 01°09' E 103°43'611.3
2017-Aug-12 13:30N 01°11' E 103°48'612.1
2017-Aug-12 13:00N 01°13' E 103°54'4 8.3
2017-Aug-12 12:30N 01°15' E 103°57'2 2.9
2017-Aug-12 11:54N 01°17' E 103°57'0 0.0
2017-Aug-12 09:27N 01°17' E 103°57'  
Track history (hours):
 
Tides and Currents Weather Stations Pressure Air Temp Water Temp Dewpoint Dewpoint Depression Visibility Wind Speed Wind Dir Waves Ship Positions

Port Stanley

Last reported at 2017-Aug-22 07:00 UTC. Time now 2017-Aug-22 07:12 UTC.
Position N 24°40' E 119°05'.

Length 183 m; draft 12 m.

MMSI: 538090299.

Date/timePositionNaut miles runAvg speedWind from/ knotsBaromVisibWave heightAir tempDewpointWater temp
2017-Aug-22 07:00N 24°40' E 119°05'5 9.4
2017-Aug-22 06:30N 24°38' E 119°01'6 9.0
2017-Aug-22 05:50N 24°34' E 118°56'3 8.8
2017-Aug-22 05:30N 24°32' E 118°53'14 8.3
2017-Aug-22 03:51N 24°24' E 118°41'3 8.3
2017-Aug-22 03:30N 24°23' E 118°38'7 8.3
2017-Aug-22 02:41N 24°18' E 118°32'2 8.9
2017-Aug-22 02:29N 24°17' E 118°31'5 9.1
2017-Aug-22 01:54N 24°14' E 118°27'8 9.4
2017-Aug-22 01:05N 24°07' E 118°22'110.0
2017-Aug-22 00:59N 24°07' E 118°21'510.1
2017-Aug-22 00:30N 24°02' E 118°19'610.9
2017-Aug-21 23:56N 23°58' E 118°15'  
2017-Aug-15 21:57N 01°15' E 104°09'511.1
2017-Aug-15 21:28N 01°14' E 104°03'511.2
2017-Aug-15 21:00N 01°14' E 103°58'611.3
2017-Aug-15 20:31N 01°12' E 103°53'510.7
2017-Aug-15 20:01N 01°09' E 103°48'510.6
2017-Aug-15 19:30N 01°06' E 103°44'510.5
2017-Aug-15 19:01N 01°03' E 103°40'5 9.5
2017-Aug-15 18:30N 01°04' E 103°35'510.1
2017-Aug-15 17:58N 01°07' E 103°31'510.1
2017-Aug-15 17:31N 01°09' E 103°27'710.1
2017-Aug-15 16:50N 01°14' E 103°21'  
2017-Aug-12 15:39N 01°16' E 103°24'211.6
2017-Aug-12 15:30N 01°14' E 103°25'712.4
2017-Aug-12 14:58N 01°13' E 103°31'612.8
2017-Aug-12 14:30N 01°12' E 103°37'612.6
2017-Aug-12 14:00N 01°09' E 103°43'611.3
2017-Aug-12 13:30N 01°11' E 103°48'612.1
2017-Aug-12 13:00N 01°13' E 103°54'4 8.3
2017-Aug-12 12:30N 01°15' E 103°57'2 2.9
2017-Aug-12 11:54N 01°17' E 103°57'0 0.0
2017-Aug-12 09:27N 01°17' E 103°57'  

Dump ship's entire track history